Terminal Aerodrome Forecast
Issued by NWS Houston/Galveston TX

Home | Current Version | Previous Version | Text Only | Print | Product List | Glossary On
Versions: 1 2 3 4 5 6 7 8 9 10 11 12 13 14 15 16 17 18 19 20 21 22 23 24 25 26 27 28 29 30 31 32
000
FTUS44 KHGX 272204 AAB
TAFHOU
TAF AMD
KHOU 272204Z 2722/2818 04011KT P6SM VCTS SCT040CB BKN120 BKN250
      TEMPO 2722/2723 07012G25KT 3SM TSRA BKN030CB OVC090
     FM272300 08008KT P6SM VCSH SCT030 BKN150
      TEMPO 2800/2802 TSRA BKN030CB
     FM280400 04004KT P6SM BKN120
     FM281100 02004KT P6SM VCSH SCT015 BKN150=

USA.gov is the U.S. government's official web portal to all federal, state and local government web resources and services.